createdAt,value
2018-02-07T00:01:49.514Z,44.22
2018-02-07T00:04:20.771Z,50.53
2018-02-07T00:06:57.275Z,51.47
2018-02-07T00:09:25.926Z,46.78
2018-02-07T00:12:00.774Z,45.92
2018-02-07T00:14:28.812Z,39.20
2018-02-07T00:16:58.546Z,43.85
2018-02-07T00:19:42.038Z,47.40
2018-02-07T00:22:11.292Z,87.80
2018-02-07T00:24:44.678Z,44.85
2018-02-07T00:27:20.684Z,46.95
2018-02-07T00:29:52.370Z,47.78
2018-02-07T00:32:25.299Z,44.97
2018-02-07T00:34:54.294Z,44.03
2018-02-07T00:37:24.162Z,49.38
2018-02-07T00:39:53.578Z,40.90
2018-02-07T00:42:25.454Z,43.67
2018-02-07T00:44:54.682Z,47.00
2018-02-07T00:47:22.962Z,40.45
2018-02-07T00:49:53.002Z,42.97
2018-02-07T00:52:23.946Z,46.47
2018-02-07T00:54:58.506Z,50.75
2018-02-07T00:57:32.350Z,40.95
2018-02-07T01:00:02.310Z,49.10
2018-02-07T01:02:37.460Z,49.83
2018-02-07T01:05:07.710Z,39.92
2018-02-07T01:07:40.990Z,48.53
2018-02-07T01:10:10.538Z,41.08
2018-02-07T01:15:15.909Z,44.47
2018-02-07T01:17:46.773Z,43.13
2018-02-07T01:22:48.258Z,48.63
2018-02-07T01:25:17.490Z,43.45
2018-02-07T01:27:50.578Z,43.75
2018-02-07T01:30:26.502Z,46.17
2018-02-07T01:32:55.734Z,42.70
2018-02-07T01:35:30.486Z,44.35
2018-02-07T01:37:58.762Z,42.72
2018-02-07T01:40:40.814Z,44.85
2018-02-07T01:43:09.095Z,40.72
2018-02-07T01:45:38.074Z,49.28
2018-02-07T01:48:14.940Z,46.33
2018-02-07T01:50:53.849Z,49.63
2018-02-07T01:53:23.878Z,49.22
2018-02-07T01:55:54.262Z,41.15
2018-02-07T01:58:29.502Z,42.38
2018-02-07T02:00:59.530Z,42.78
2018-02-07T02:03:28.542Z,43.40
2018-02-07T02:05:58.362Z,45.50
2018-02-07T02:08:26.447Z,41.95
2018-02-07T02:10:58.998Z,50.00
2018-02-07T02:13:28.014Z,43.45
2018-02-07T02:15:57.970Z,47.42
2018-02-07T02:18:33.289Z,44.83
2018-02-07T02:21:03.353Z,41.25
2018-02-07T02:23:34.097Z,54.38
2018-02-07T02:26:02.198Z,49.22
2018-02-07T02:28:30.258Z,44.10
2018-02-07T02:30:58.666Z,47.42
2018-02-07T02:33:28.734Z,43.35
2018-02-07T02:36:13.178Z,49.65
2018-02-07T02:38:42.010Z,42.00
2018-02-07T02:41:11.074Z,47.53
2018-02-07T02:43:39.182Z,47.60
2018-02-07T02:46:07.225Z,43.83
2018-02-07T02:48:35.284Z,39.58
2018-02-07T02:51:21.298Z,49.80
2018-02-07T02:53:49.358Z,51.85
2018-02-07T02:56:29.154Z,52.13
2018-02-07T02:58:58.040Z,46.20
2018-02-07T03:01:33.486Z,51.70
2018-02-07T03:04:06.389Z,45.38
2018-02-07T03:06:35.193Z,51.03
2018-02-07T03:09:05.110Z,47.08
2018-02-07T03:11:33.945Z,43.50
2018-02-07T03:14:05.794Z,55.25
2018-02-07T03:16:34.873Z,48.60
2018-02-07T03:19:03.950Z,51.37
2018-02-07T03:21:32.031Z,53.53
2018-02-07T03:24:02.810Z,42.58
2018-02-07T03:26:30.997Z,48.87
2018-02-07T03:28:59.022Z,41.55
2018-02-07T03:31:29.038Z,51.80
2018-02-07T03:33:57.874Z,54.17
2018-02-07T03:36:26.873Z,46.33
2018-02-07T03:38:59.393Z,50.42
2018-02-07T03:41:31.117Z,45.72
2018-02-07T03:43:59.961Z,48.50
2018-02-07T03:46:29.057Z,53.63
2018-02-07T03:48:58.225Z,53.42
2018-02-07T03:51:26.275Z,53.15
2018-02-07T03:53:55.097Z,46.13
2018-02-07T03:56:32.429Z,40.75
2018-02-07T03:59:00.449Z,49.97
2018-02-07T04:01:32.953Z,52.13
2018-02-07T04:04:06.811Z,49.42
2018-02-07T04:06:36.837Z,53.90
2018-02-07T04:09:05.957Z,40.88
2018-02-07T04:11:39.593Z,49.80
2018-02-07T04:14:15.265Z,64.30
2018-02-07T04:16:46.029Z,47.45
2018-02-07T04:19:19.389Z,47.67
2018-02-07T04:21:49.421Z,51.80
2018-02-07T04:24:17.473Z,49.20
2018-02-07T04:26:47.293Z,56.08
2018-02-07T04:29:19.761Z,48.83
2018-02-07T04:31:52.417Z,51.30
2018-02-07T04:34:36.497Z,51.95
2018-02-07T04:37:10.109Z,47.20
2018-02-07T04:39:42.021Z,64.47
2018-02-07T04:42:11.002Z,55.00
2018-02-07T04:44:39.033Z,59.97
2018-02-07T04:47:22.793Z,53.65
2018-02-07T04:49:50.845Z,49.38
2018-02-07T04:52:20.812Z,51.72
2018-02-07T04:54:51.543Z,49.25
2018-02-07T04:57:23.313Z,51.00
2018-02-07T04:59:52.213Z,53.08
2018-02-07T05:02:22.000Z,57.00
2018-02-07T05:04:50.053Z,55.05
2018-02-07T05:07:18.093Z,52.20
2018-02-07T05:09:48.053Z,58.65
2018-02-07T05:12:25.917Z,63.97
2018-02-07T05:14:59.877Z,55.30
2018-02-07T05:17:43.829Z,62.85
2018-02-07T05:20:24.697Z,52.62
2018-02-07T05:22:57.248Z,51.80
2018-02-07T05:25:30.964Z,61.05
2018-02-07T05:28:06.461Z,62.40
2018-02-07T05:30:47.205Z,55.40
2018-02-07T05:33:16.149Z,65.07
2018-02-07T05:35:44.186Z,65.47
2018-02-07T05:38:15.876Z,62.92
2018-02-07T05:40:44.877Z,59.90
2018-02-07T05:43:18.332Z,57.55
2018-02-07T05:45:51.036Z,68.87
2018-02-07T05:48:23.030Z,67.00
2018-02-07T05:50:51.821Z,63.75
2018-02-07T05:53:33.233Z,61.08
2018-02-07T05:56:01.277Z,53.13
2018-02-07T05:58:32.096Z,63.80
2018-02-07T06:01:00.143Z,66.10
2018-02-07T06:03:31.896Z,63.95
2018-02-07T06:06:14.153Z,58.42
2018-02-07T06:08:42.168Z,67.93
2018-02-07T06:11:16.097Z,59.78
2018-02-07T06:13:55.499Z,68.82
2018-02-07T06:16:26.216Z,57.53
2018-02-07T06:18:56.177Z,58.78
2018-02-07T06:21:30.096Z,62.13
2018-02-07T06:23:58.900Z,57.40
2018-02-07T06:26:32.516Z,59.67
2018-02-07T06:29:02.488Z,60.25
2018-02-07T06:31:32.544Z,59.83
2018-02-07T06:34:01.506Z,61.33
2018-02-07T06:36:29.544Z,72.12
2018-02-07T06:39:03.264Z,67.20
2018-02-07T06:41:38.800Z,62.95
2018-02-07T06:44:07.816Z,59.83
2018-02-07T06:46:40.800Z,61.33
2018-02-07T06:49:09.796Z,62.60
2018-02-07T06:51:38.600Z,65.25
2018-02-07T06:54:07.388Z,61.92
2018-02-07T06:56:37.372Z,72.15
2018-02-07T06:59:11.652Z,66.03
2018-02-07T07:01:42.736Z,64.37
2018-02-07T07:04:11.745Z,72.03
2018-02-07T07:06:53.564Z,65.55
2018-02-07T07:09:25.264Z,72.85
2018-02-07T07:11:53.328Z,58.22
2018-02-07T07:14:22.332Z,61.47
2018-02-07T07:16:50.364Z,63.78
2018-02-07T07:19:26.332Z,70.45
2018-02-07T07:22:02.008Z,64.10
2018-02-07T07:24:36.952Z,68.57
2018-02-07T07:27:07.668Z,62.08
2018-02-07T07:29:39.024Z,60.55
2018-02-07T07:32:07.094Z,61.97
2018-02-07T07:34:35.107Z,54.92
2018-02-07T07:37:11.628Z,55.28
2018-02-07T07:39:39.664Z,58.05
2018-02-07T07:42:13.332Z,56.75
2018-02-07T07:44:43.104Z,58.85
2018-02-07T07:47:16.868Z,56.63
2018-02-07T07:49:44.896Z,56.63
2018-02-07T07:52:20.516Z,52.47
2018-02-07T07:54:48.543Z,56.45
2018-02-07T07:57:20.408Z,52.58
2018-02-07T07:59:50.372Z,55.83
2018-02-07T08:02:21.961Z,52.62
2018-02-07T08:04:50.756Z,59.17
2018-02-07T08:07:19.551Z,57.85
2018-02-07T08:09:55.020Z,53.47
2018-02-07T08:12:33.077Z,58.08
2018-02-07T08:15:05.028Z,51.05
2018-02-07T08:17:36.768Z,49.45
2018-02-07T08:20:04.796Z,54.95
2018-02-07T08:22:36.560Z,59.58
2018-02-07T08:25:04.608Z,52.47
2018-02-07T08:27:46.498Z,57.72
2018-02-07T08:30:17.183Z,55.80
2018-02-07T08:32:45.204Z,54.67
2018-02-07T08:35:13.231Z,50.85
2018-02-07T08:37:43.159Z,50.17
2018-02-07T08:40:14.595Z,55.92
2018-02-07T08:42:46.371Z,49.95
2018-02-07T08:45:15.351Z,55.35
2018-02-07T08:47:44.267Z,55.42
2018-02-07T08:50:13.055Z,56.70
2018-02-07T08:52:45.040Z,55.45
2018-02-07T08:55:22.759Z,53.03
2018-02-07T08:58:07.531Z,52.35
2018-02-07T09:00:35.555Z,50.45
2018-02-07T09:03:03.587Z,54.97
2018-02-07T09:05:35.355Z,53.17
2018-02-07T09:08:06.043Z,54.75
2018-02-07T09:10:35.987Z,57.17
2018-02-07T09:13:04.016Z,52.50
2018-02-07T09:15:35.819Z,60.28
2018-02-07T09:18:03.847Z,52.22
2018-02-07T09:20:35.751Z,57.47
2018-02-07T09:23:05.672Z,53.33
2018-02-07T09:25:34.467Z,52.67
2018-02-07T09:28:03.280Z,50.17
2018-02-07T09:30:32.219Z,58.05
2018-02-07T09:33:02.158Z,53.55
2018-02-07T09:35:34.811Z,52.58
2018-02-07T09:38:04.735Z,51.97
2018-02-07T09:40:32.759Z,53.60
2018-02-07T09:43:00.787Z,53.63
2018-02-07T09:45:29.583Z,55.58
2018-02-07T09:47:59.362Z,57.60
2018-02-07T09:50:38.527Z,56.00
2018-02-07T09:53:07.315Z,51.15
2018-02-07T09:55:40.803Z,51.53
2018-02-07T09:58:09.599Z,57.50
2018-02-07T10:00:38.387Z,47.90
2018-02-07T10:03:07.176Z,53.05
2018-02-07T10:05:35.988Z,46.78
2018-02-07T10:08:03.995Z,49.65
2018-02-07T10:10:32.023Z,49.05
2018-02-07T10:13:13.059Z,54.47
2018-02-07T10:15:42.979Z,54.40
2018-02-07T10:18:19.095Z,56.37
2018-02-07T10:20:50.471Z,55.38
2018-02-07T10:23:30.142Z,51.10
2018-02-07T10:25:59.099Z,48.53
2018-02-07T10:28:35.208Z,49.45
2018-02-07T10:31:05.171Z,52.72
2018-02-07T10:33:38.447Z,57.55
2018-02-07T10:36:06.483Z,45.47
2018-02-07T10:38:38.399Z,56.42
2018-02-07T10:41:06.519Z,51.47
2018-02-07T10:43:40.055Z,47.00
2018-02-07T10:46:12.738Z,44.85
2018-02-07T10:48:41.672Z,51.08
2018-02-07T10:51:10.459Z,48.97
2018-02-07T10:53:43.399Z,53.55
2018-02-07T10:59:11.150Z,48.65
2018-02-07T11:01:39.175Z,47.38
2018-02-07T11:04:07.195Z,43.87
2018-02-07T11:06:38.888Z,45.58
2018-02-07T11:09:10.750Z,48.97
2018-02-07T11:11:47.386Z,48.90
2018-02-07T11:14:19.351Z,50.75
2018-02-07T11:16:50.311Z,48.42
2018-02-07T11:19:18.327Z,50.50
2018-02-07T11:21:46.375Z,44.05
2018-02-07T11:24:27.803Z,56.08
2018-02-07T11:27:17.167Z,48.08
2018-02-07T11:29:49.167Z,49.88
2018-02-07T11:32:17.203Z,51.28
2018-02-07T11:34:49.715Z,44.80
2018-02-07T11:37:34.834Z,47.50
2018-02-07T11:40:04.759Z,48.55
2018-02-07T11:42:38.887Z,50.38
2018-02-07T11:45:12.103Z,50.53
2018-02-07T11:47:47.639Z,50.75
2018-02-07T11:50:16.691Z,47.20
2018-02-07T11:52:49.018Z,54.03
2018-02-07T11:55:17.042Z,53.17
2018-02-07T11:57:49.167Z,54.28
2018-02-07T12:00:22.863Z,50.55
2018-02-07T12:02:50.895Z,53.50
2018-02-07T12:05:24.826Z,56.40
2018-02-07T12:07:54.879Z,52.78
2018-02-07T12:10:27.702Z,49.55
2018-02-07T12:12:56.639Z,50.47
2018-02-07T12:15:35.058Z,57.62
2018-02-07T12:18:03.862Z,45.92
2018-02-07T12:20:31.898Z,54.65
2018-02-07T12:23:00.814Z,47.00
2018-02-07T12:25:36.402Z,49.53
2018-02-07T12:28:16.999Z,49.10
2018-02-07T12:30:45.027Z,45.50
2018-02-07T12:33:13.965Z,56.30
2018-02-07T12:35:48.130Z,49.42
2018-02-07T12:38:21.938Z,53.15
2018-02-07T12:40:49.978Z,47.85
2018-02-07T12:43:21.118Z,53.42
2018-02-07T12:45:50.050Z,53.92
2018-02-07T12:48:18.086Z,55.28
2018-02-07T12:50:47.034Z,53.95
2018-02-07T12:53:15.059Z,52.33
2018-02-07T12:55:49.482Z,57.35
2018-02-07T12:58:17.525Z,49.50
2018-02-07T13:00:46.310Z,47.92
2018-02-07T13:03:25.766Z,50.08
2018-02-07T13:06:04.026Z,41.88
2018-02-07T13:08:32.087Z,47.15
2018-02-07T13:11:03.870Z,54.38
2018-02-07T13:13:32.850Z,54.13
2018-02-07T13:16:00.874Z,52.97
2018-02-07T13:18:35.942Z,59.13
2018-02-07T13:21:03.970Z,55.10
2018-02-07T13:23:31.997Z,52.53
2018-02-07T13:26:00.027Z,48.40
2018-02-07T13:28:31.746Z,48.83
2018-02-07T13:31:02.470Z,58.03
2018-02-07T13:33:36.366Z,49.50
2018-02-07T13:36:08.221Z,49.65
2018-02-07T13:38:37.210Z,52.90
2018-02-07T13:41:10.670Z,51.75
2018-02-07T13:43:38.701Z,51.13
2018-02-07T13:46:09.438Z,46.40
2018-02-07T13:48:40.134Z,61.25
2018-02-07T13:51:10.161Z,54.67
2018-02-07T13:53:38.214Z,55.85
2018-02-07T13:56:10.198Z,56.58
2018-02-07T13:58:39.229Z,52.33
2018-02-07T14:01:09.914Z,51.42
2018-02-07T14:03:37.958Z,45.45
2018-02-07T14:06:09.794Z,52.72
2018-02-07T14:08:37.818Z,48.60
2018-02-07T14:13:37.694Z,55.00
2018-02-07T14:16:05.709Z,56.40
2018-02-07T14:18:37.182Z,50.38
2018-02-07T14:21:22.786Z,52.92
2018-02-07T14:23:50.822Z,50.97
2018-02-07T14:26:18.854Z,51.22
2018-02-07T14:28:48.790Z,53.25
2018-02-07T14:31:17.722Z,55.20
2018-02-07T14:33:46.510Z,52.60
2018-02-07T14:36:17.230Z,60.95
2018-02-07T14:38:45.350Z,55.60
2018-02-07T14:41:17.905Z,53.47
2018-02-07T14:43:46.857Z,53.15
2018-02-07T14:46:18.714Z,45.70
2018-02-07T14:48:58.050Z,47.47
2018-02-07T14:51:27.097Z,48.45
2018-02-07T14:54:18.925Z,47.83
2018-02-07T14:56:49.621Z,44.78
2018-02-07T14:59:18.441Z,46.47
2018-02-07T15:01:48.415Z,51.95
2018-02-07T15:04:23.925Z,49.65
2018-02-07T15:06:57.241Z,44.40
2018-02-07T15:09:30.209Z,49.03
2018-02-07T15:11:59.122Z,51.22
2018-02-07T15:14:27.145Z,55.28
2018-02-07T15:16:55.170Z,49.58
2018-02-07T15:19:23.949Z,45.70
2018-02-07T15:21:51.978Z,50.00
2018-02-07T15:24:20.897Z,50.12
2018-02-07T15:26:48.917Z,53.97
2018-02-07T15:29:29.677Z,46.90
2018-02-07T15:31:57.701Z,53.78
2018-02-07T15:34:31.457Z,49.17
2018-02-07T15:37:01.137Z,50.20
2018-02-07T15:39:29.925Z,53.45
2018-02-07T15:42:01.773Z,52.88
2018-02-07T15:44:37.289Z,58.00
2018-02-07T15:47:07.193Z,52.33
2018-02-07T15:49:38.259Z,50.40
2018-02-07T15:52:10.141Z,52.05
2018-02-07T15:54:39.829Z,49.90
2018-02-07T15:57:07.861Z,54.28
2018-02-07T15:59:39.753Z,55.45
2018-02-07T16:02:07.785Z,50.58
2018-02-07T16:04:36.785Z,63.90
2018-02-07T16:07:17.449Z,56.05
2018-02-07T16:09:48.746Z,50.12
2018-02-07T16:12:16.769Z,51.22
2018-02-07T16:14:52.777Z,53.45
2018-02-07T16:17:27.153Z,50.15
2018-02-07T16:19:56.076Z,52.70
2018-02-07T16:22:30.264Z,54.85
2018-02-07T16:25:10.845Z,58.45
2018-02-07T16:27:38.885Z,52.17
2018-02-07T16:30:07.905Z,51.08
2018-02-07T16:32:37.841Z,61.80
2018-02-07T16:35:11.213Z,58.28
2018-02-07T16:37:44.905Z,48.17
2018-02-07T16:40:13.949Z,57.78
2018-02-07T16:42:42.761Z,61.95
2018-02-07T16:45:10.777Z,57.25
2018-02-07T16:47:38.809Z,55.08
2018-02-07T16:50:06.849Z,53.92
2018-02-07T16:52:38.789Z,57.80
2018-02-07T16:55:12.473Z,57.05
2018-02-07T16:57:40.511Z,58.30
2018-02-07T17:00:13.125Z,60.30
2018-02-07T17:02:48.644Z,55.35
2018-02-07T17:05:36.557Z,61.85
2018-02-07T17:08:06.480Z,55.78
2018-02-07T17:10:35.529Z,55.90
2018-02-07T17:13:03.550Z,63.40
2018-02-07T17:15:36.265Z,65.32
2018-02-07T17:18:21.577Z,62.58
2018-02-07T17:20:50.528Z,59.88
2018-02-07T17:23:23.880Z,60.17
2018-02-07T17:25:51.914Z,58.78
2018-02-07T17:28:21.604Z,55.70
2018-02-07T17:30:49.629Z,64.70
2018-02-07T17:33:17.673Z,101.97
2018-02-07T17:35:46.482Z,120.35
2018-02-07T17:38:14.529Z,74.75
2018-02-07T17:40:44.309Z,146.65
2018-02-07T17:43:13.249Z,366.12
2018-02-07T17:45:43.228Z,223.62
2018-02-07T17:48:11.261Z,93.80
2018-02-07T17:50:40.065Z,74.75
2018-02-07T17:53:09.013Z,64.40
2018-02-07T17:55:37.053Z,61.72
2018-02-07T17:58:10.609Z,62.15
2018-02-07T18:00:38.665Z,57.03
2018-02-07T18:03:07.860Z,66.37
2018-02-07T18:05:37.070Z,69.37
2018-02-07T18:08:05.520Z,62.03
2018-02-07T18:10:33.805Z,66.97
2018-02-07T18:13:01.801Z,60.22
2018-02-07T18:15:31.332Z,57.50
2018-02-07T18:17:59.364Z,58.55
2018-02-07T18:20:35.989Z,58.28
2018-02-07T18:23:08.604Z,63.00
2018-02-07T18:25:47.652Z,61.00
2018-02-07T18:28:16.588Z,65.72
2018-02-07T18:30:44.616Z,56.92
2018-02-07T18:33:16.296Z,54.13
2018-02-07T18:35:45.252Z,62.90
2018-02-07T18:38:17.731Z,73.70
2018-02-07T18:40:52.148Z,73.72
2018-02-07T18:43:33.712Z,62.00
2018-02-07T18:46:03.696Z,64.00
2018-02-07T18:48:32.668Z,60.17
2018-02-07T18:51:11.544Z,51.40
2018-02-07T18:53:42.796Z,55.60
2018-02-07T18:56:21.252Z,60.30
2018-02-07T18:59:04.652Z,66.05
2018-02-07T19:01:37.072Z,75.30
2018-02-07T19:04:07.072Z,66.90
2018-02-07T19:06:47.632Z,61.88
2018-02-07T19:09:17.692Z,60.85
2018-02-07T19:11:52.148Z,58.47
2018-02-07T19:14:21.223Z,54.03
2018-02-07T19:16:49.212Z,52.88
2018-02-07T19:19:18.164Z,60.80
2018-02-07T19:21:47.952Z,52.92
2018-02-07T19:24:26.020Z,56.37
2018-02-07T19:27:05.760Z,53.67
2018-02-07T19:29:33.804Z,54.40
2018-02-07T19:32:01.836Z,54.25
2018-02-07T19:34:30.056Z,54.67
2018-02-07T19:37:07.064Z,57.25
2018-02-07T19:39:37.160Z,62.30
2018-02-07T19:42:09.984Z,49.42
2018-02-07T19:44:43.700Z,64.57
2018-02-07T19:47:11.816Z,59.22
2018-02-07T19:49:39.855Z,65.05
2018-02-07T19:52:09.896Z,51.65
2018-02-07T19:54:44.251Z,57.38
2018-02-07T19:57:15.303Z,59.92
2018-02-07T19:59:43.355Z,55.60
2018-02-07T20:02:17.584Z,54.63
2018-02-07T20:04:46.628Z,56.78
2018-02-07T20:07:20.640Z,63.85
2018-02-07T20:09:49.472Z,56.13
2018-02-07T20:12:19.184Z,60.85
2018-02-07T20:14:48.020Z,64.12
2018-02-07T20:17:18.284Z,58.33
2018-02-07T20:19:47.056Z,101.53
2018-02-07T20:22:19.048Z,67.65
2018-02-07T20:24:48.396Z,60.90
2018-02-07T20:27:26.319Z,58.92
2018-02-07T20:29:55.412Z,58.30
2018-02-07T20:32:23.514Z,61.58
2018-02-07T20:34:54.911Z,59.97
2018-02-07T20:37:23.006Z,67.10
2018-02-07T20:39:52.981Z,62.08
2018-02-07T20:42:21.840Z,64.53
2018-02-07T20:44:50.860Z,61.17
2018-02-07T20:47:18.891Z,64.87
2018-02-07T20:49:48.151Z,60.50
2018-02-07T20:52:28.008Z,60.45
2018-02-07T20:55:00.076Z,62.53
2018-02-07T20:57:34.675Z,63.78
2018-02-07T21:00:08.591Z,57.75
2018-02-07T21:02:36.672Z,61.37
2018-02-07T21:05:08.068Z,58.75
2018-02-07T21:07:37.076Z,81.70
2018-02-07T21:10:06.671Z,69.05
2018-02-07T21:12:39.167Z,63.97
2018-02-07T21:15:08.971Z,62.08
2018-02-07T21:17:38.839Z,59.78
2018-02-07T21:20:12.543Z,69.45
2018-02-07T21:22:44.323Z,63.15
2018-02-07T21:25:12.423Z,62.10
2018-02-07T21:27:42.695Z,78.65
2018-02-07T21:30:13.041Z,62.50
2018-02-07T21:32:42.303Z,62.62
2018-02-07T21:35:11.971Z,59.40
2018-02-07T21:37:40.371Z,53.50
2018-02-07T21:40:12.667Z,56.03
2018-02-07T21:42:43.511Z,56.78
2018-02-07T21:45:12.619Z,57.97
2018-02-07T21:47:47.231Z,61.28
2018-02-07T21:50:15.599Z,63.72
2018-02-07T21:52:45.719Z,55.97
2018-02-07T21:55:20.083Z,56.95
2018-02-07T21:57:48.191Z,58.60
2018-02-07T22:00:17.411Z,60.08
2018-02-07T22:02:48.835Z,58.97
2018-02-07T22:05:22.203Z,61.35
2018-02-07T22:07:54.255Z,64.18
2018-02-07T22:10:26.003Z,57.05
2018-02-07T22:13:04.319Z,57.97
2018-02-07T22:15:38.440Z,53.87
2018-02-07T22:18:12.027Z,51.15
2018-02-07T22:20:43.475Z,61.33
2018-02-07T22:23:12.483Z,61.00
2018-02-07T22:25:40.567Z,62.17
2018-02-07T22:28:25.259Z,65.00
2018-02-07T22:30:58.011Z,58.38
2018-02-07T22:33:27.775Z,50.67
2018-02-07T22:36:02.463Z,59.00
2018-02-07T22:38:35.446Z,59.92
2018-02-07T22:41:07.800Z,67.78
2018-02-07T22:43:40.582Z,63.38
2018-02-07T22:46:19.495Z,63.30
2018-02-07T22:48:49.974Z,59.47
2018-02-07T22:51:22.327Z,61.78
2018-02-07T22:53:52.891Z,57.67
2018-02-07T22:56:27.387Z,63.50
2018-02-07T22:59:04.274Z,64.28
2018-02-07T23:01:42.702Z,58.60
2018-02-07T23:04:16.619Z,61.67
2018-02-07T23:06:48.815Z,59.63
2018-02-07T23:09:17.019Z,60.03
2018-02-07T23:11:47.763Z,60.42
2018-02-07T23:14:18.779Z,63.17
2018-02-07T23:16:48.611Z,54.00
2018-02-07T23:19:24.187Z,55.80
2018-02-07T23:22:04.181Z,62.70
2018-02-07T23:24:32.274Z,70.43
2018-02-07T23:27:17.686Z,65.72
2018-02-07T23:29:49.478Z,61.85
2018-02-07T23:32:21.258Z,68.60
2018-02-07T23:34:50.143Z,81.85
2018-02-07T23:37:19.755Z,63.40
2018-02-07T23:39:47.815Z,69.87
2018-02-07T23:42:16.997Z,71.12
2018-02-07T23:44:45.063Z,70.50
2018-02-07T23:47:14.894Z,68.05
2018-02-07T23:49:43.127Z,76.93
2018-02-07T23:52:15.270Z,69.68
2018-02-07T23:54:43.542Z,78.40
2018-02-07T23:57:15.086Z,67.15
2018-02-07T23:59:48.591Z,73.60
